Time;durP1;ratioP1;P1;durP2;ratioP2;P2;SDS_P1;SDS_P2;PMS_P1;PMS_P2;Temp;Humidity;BMP_temperature;BMP_pressure;BME280_temperature;BME280_humidity;BME280_pressure;Samples;Min_cycle;Max_cycle;Signal;HPM_P1;HPM_P2
2022/09/14 00:01:37;;;;;;;2.80;2.40;;;22.70;99.90;;;;;;5075639;28;20245;-70
2022/09/14 00:04:14;;;;;;;3.10;2.80;;;22.70;99.90;;;;;;5075528;28;20201;-70
2022/09/14 00:06:41;;;;;;;3.67;2.80;;;22.70;99.90;;;;;;5073344;28;20485;-70
2022/09/14 00:09:10;;;;;;;3.67;3.10;;;22.70;99.90;;;;;;5075747;28;20502;-70
2022/09/14 00:11:36;;;;;;;3.50;3.00;;;22.70;99.90;;;;;;5075810;28;20477;-69
2022/09/14 00:14:02;;;;;;;5.10;2.33;;;22.50;99.90;;;;;;5074218;28;20495;-70
2022/09/14 00:16:31;;;;;;;3.10;2.60;;;22.50;99.90;;;;;;5076181;28;20435;-70
2022/09/14 00:19:00;;;;;;;3.23;2.27;;;22.60;99.90;;;;;;5075327;28;20405;-70
2022/09/14 00:21:26;;;;;;;3.50;2.90;;;22.70;99.90;;;;;;5075135;28;20400;-69
2022/09/14 00:23:52;;;;;;;2.70;1.93;;;22.70;99.90;;;;;;5074767;28;20526;-70
2022/09/14 00:26:20;;;;;;;2.07;1.97;;;22.70;99.90;;;;;;5074231;28;20444;-69
2022/09/14 00:28:51;;;;;;;3.77;2.60;;;22.70;99.90;;;;;;5074796;28;20192;-70
2022/09/14 00:31:18;;;;;;;3.47;2.50;;;22.70;99.90;;;;;;5075141;28;20424;-70
2022/09/14 00:33:46;;;;;;;2.60;2.10;;;22.70;99.90;;;;;;5075066;28;20412;-69
2022/09/14 00:36:18;;;;;;;3.27;2.50;;;22.70;99.90;;;;;;5075245;28;20462;-70
2022/09/14 00:38:45;;;;;;;2.40;2.20;;;22.70;99.90;;;;;;5074996;28;20759;-69
2022/09/14 00:41:16;;;;;;;2.57;2.23;;;22.70;99.90;;;;;;5074952;28;20431;-69
2022/09/14 00:43:54;;;;;;;3.10;2.37;;;22.70;99.90;;;;;;5073262;28;20432;-69
2022/09/14 00:46:21;;;;;;;2.80;2.17;;;22.70;99.90;;;;;;5074871;28;20415;-70
2022/09/14 00:48:46;;;;;;;3.23;2.10;;;22.70;99.90;;;;;;5075109;28;20440;-70
2022/09/14 00:51:13;;;;;;;2.03;1.83;;;22.70;99.90;;;;;;5073587;28;20436;-70
2022/09/14 00:53:40;;;;;;;3.30;2.40;;;22.70;99.90;;;;;;5074671;28;20163;-70
2022/09/14 00:56:05;;;;;;;3.40;2.40;;;22.60;99.90;;;;;;5074563;28;20956;-70
2022/09/14 00:58:31;;;;;;;2.03;1.90;;;22.60;99.90;;;;;;5074227;28;20404;-70
2022/09/14 01:00:57;;;;;;;2.70;2.17;;;22.70;99.90;;;;;;5073515;28;20174;-70
2022/09/14 01:03:23;;;;;;;2.10;1.90;;;22.70;99.90;;;;;;5074795;28;20544;-70
2022/09/14 01:06:04;;;;;;;2.40;2.20;;;22.70;99.90;;;;;;5074276;28;20440;-69
2022/09/14 01:08:29;;;;;;;3.20;2.10;;;22.70;99.90;;;;;;5054917;28;20417;-70
2022/09/14 01:10:58;;;;;;;3.30;2.17;;;22.70;99.90;;;;;;5054474;28;20425;-69
2022/09/14 01:13:45;;;;;;;2.17;1.83;;;22.60;99.90;;;;;;5054739;28;20551;-70
2022/09/14 01:16:46;;;;;;;2.33;2.13;;;22.70;99.90;;;;;;5054630;28;20508;-69
2022/09/14 01:19:34;;;;;;;3.43;2.17;;;22.60;99.90;;;;;;5066749;28;20774;-70
2022/09/14 01:22:14;;;;;;;2.30;1.90;;;22.50;99.90;;;;;;5073988;28;20396;-69
2022/09/14 01:24:44;;;;;;;3.13;2.50;;;22.40;99.90;;;;;;5073521;28;20950;-69
2022/09/14 01:27:33;;;;;;;3.20;2.90;;;22.30;99.90;;;;;;5073957;28;20385;-69
2022/09/14 01:30:09;;;;;;;2.93;2.40;;;21.90;99.90;;;;;;5074147;28;20407;-69
2022/09/14 01:32:53;;;;;;;13.47;4.83;;;21.90;99.90;;;;;;5074361;28;20384;-70
2022/09/14 01:35:30;;;;;;;11.57;4.40;;;21.40;99.90;;;;;;5073993;28;20542;-70
2022/09/14 01:38:04;;;;;;;8.73;4.00;;;20.90;99.90;;;;;;5073808;28;20737;-71
2022/09/14 01:40:57;;;;;;;11.77;3.80;;;20.50;99.90;;;;;;5074294;28;20917;-71
2022/09/14 01:43:36;;;;;;;8.73;2.97;;;20.50;99.90;;;;;;5069914;28;21144;-71
2022/09/14 01:46:25;;;;;;;8.80;3.80;;;20.70;99.90;;;;;;5074926;28;20388;-70
2022/09/14 01:49:09;;;;;;;6.83;3.40;;;20.70;99.90;;;;;;5073723;28;20527;-71
2022/09/14 01:51:55;;;;;;;7.47;3.30;;;20.60;99.90;;;;;;5061594;28;20423;-70
2022/09/14 01:54:44;;;;;;;6.37;2.43;;;20.60;99.90;;;;;;5073368;28;20455;-70
2022/09/14 01:57:21;;;;;;;8.30;3.17;;;20.60;99.90;;;;;;5073897;28;20503;-71
2022/09/14 01:59:51;;;;;;;5.83;2.70;;;20.50;99.90;;;;;;5071939;28;20469;-72
2022/09/14 02:02:38;;;;;;;6.90;3.03;;;20.50;99.90;;;;;;5073526;28;20418;-71
2022/09/14 02:05:20;;;;;;;3.43;2.27;;;20.70;99.90;;;;;;5073344;28;20451;-70
2022/09/14 02:07:46;;;;;;;5.50;2.50;;;20.70;99.90;;;;;;5073554;28;20381;-71
2022/09/14 02:10:14;;;;;;;6.73;2.77;;;20.80;99.90;;;;;;5073493;28;20407;-70
2022/09/14 02:12:40;;;;;;;2.93;2.20;;;20.90;99.90;;;;;;5073305;28;20400;-70
2022/09/14 02:15:08;;;;;;;6.83;3.17;;;20.90;99.90;;;;;;5072652;28;20448;-70
2022/09/14 02:17:34;;;;;;;3.40;2.43;;;21.00;99.90;;;;;;5073701;28;20408;-70
2022/09/14 02:20:03;;;;;;;5.23;2.80;;;21.00;99.90;;;;;;5072724;28;20891;-70
2022/09/14 02:22:30;;;;;;;5.03;2.20;;;21.00;99.90;;;;;;5073357;28;20198;-70
2022/09/14 02:24:56;;;;;;;3.33;2.47;;;21.10;99.90;;;;;;5073873;28;20508;-70
2022/09/14 02:27:22;;;;;;;7.07;3.30;;;21.10;99.90;;;;;;5079123;22;20472;-66
2022/09/14 02:29:49;;;;;;;5.20;2.97;;;21.10;99.90;;;;;;5051951;28;20782;-66
2022/09/14 02:32:32;;;;;;;5.33;2.70;;;21.00;99.90;;;;;;5052747;28;20488;-65
2022/09/14 02:35:16;;;;;;;4.57;2.53;;;21.10;99.90;;;;;;5052611;28;20425;-66
2022/09/14 02:37:46;;;;;;;3.60;2.47;;;21.10;99.90;;;;;;5052280;28;20472;-66
2022/09/14 02:40:35;;;;;;;4.10;2.57;;;21.20;99.90;;;;;;5052792;28;20401;-66
2022/09/14 02:43:27;;;;;;;6.20;2.70;;;21.20;99.90;;;;;;5052498;28;20437;-67
2022/09/14 02:46:11;;;;;;;6.97;2.80;;;21.20;99.90;;;;;;5032137;28;20433;-67
2022/09/14 02:48:43;;;;;;;3.40;2.97;;;21.20;99.90;;;;;;5032430;28;20393;-67
2022/09/14 02:51:36;;;;;;;5.30;3.30;;;21.20;99.90;;;;;;5035994;28;20892;-67
2022/09/14 02:54:16;;;;;;;6.27;3.63;;;21.10;99.90;;;;;;5036805;28;20433;-67
2022/09/14 02:56:43;;;;;;;6.00;3.90;;;21.10;99.90;;;;;;5036464;28;20433;-67
2022/09/14 02:59:09;;;;;;;6.83;2.97;;;21.10;99.90;;;;;;5036352;28;20930;-66
2022/09/14 03:01:35;;;;;;;3.10;2.90;;;21.20;99.90;;;;;;5036335;28;20484;-67
2022/09/14 03:04:00;;;;;;;4.30;3.10;;;21.20;99.90;;;;;;5036455;28;20171;-67
2022/09/14 03:06:26;;;;;;;3.70;3.40;;;21.10;99.90;;;;;;5036399;28;20289;-67
2022/09/14 03:08:51;;;;;;;4.80;3.50;;;21.10;99.90;;;;;;5036370;28;20175;-67
2022/09/14 03:11:17;;;;;;;3.80;2.87;;;21.10;99.90;;;;;;5041956;28;20240;-65
2022/09/14 03:13:43;;;;;;;4.33;3.27;;;21.10;99.90;;;;;;5055834;28;20173;-67
2022/09/14 03:16:11;;;;;;;6.97;3.93;;;21.10;99.90;;;;;;5056104;28;20186;-67
2022/09/14 03:18:37;;;;;;;3.73;3.20;;;20.90;99.90;;;;;;5056194;28;20611;-66
2022/09/14 03:21:08;;;;;;;3.53;3.23;;;20.90;99.90;;;;;;5056715;28;20393;-66
2022/09/14 03:23:38;;;;;;;6.03;3.73;;;20.80;99.90;;;;;;5055792;28;20200;-66
2022/09/14 03:26:15;;;;;;;4.20;3.20;;;20.80;99.90;;;;;;5055625;28;20813;-68
2022/09/14 03:28:41;;;;;;;3.47;3.17;;;20.80;99.90;;;;;;5056087;28;20404;-68
2022/09/14 03:31:08;;;;;;;3.33;3.03;;;20.80;99.90;;;;;;5055860;28;20508;-66
2022/09/14 03:33:34;;;;;;;6.47;3.70;;;20.70;99.90;;;;;;5055762;28;20423;-66
2022/09/14 03:36:08;;;;;;;3.47;3.13;;;20.80;99.90;;;;;;5055729;28;20543;-66
2022/09/14 03:38:33;;;;;;;5.33;3.50;;;20.70;99.90;;;;;;5037747;28;20167;-66
2022/09/14 03:40:59;;;;;;;4.47;3.60;;;20.60;99.90;;;;;;5055773;28;20753;-66
2022/09/14 03:43:25;;;;;;;3.97;3.57;;;20.70;99.90;;;;;;5055766;28;20165;-66
2022/09/14 03:45:51;;;;;;;5.07;3.40;;;20.60;99.90;;;;;;5053982;28;20237;-68
2022/09/14 03:48:17;;;;;;;4.50;3.20;;;20.50;99.90;;;;;;5055627;28;20489;-66
2022/09/14 03:50:42;;;;;;;9.30;3.97;;;20.60;99.90;;;;;;5055794;28;20683;-66
2022/09/14 03:53:08;;;;;;;3.30;2.80;;;20.70;99.90;;;;;;5037336;28;20171;-66
2022/09/14 03:55:33;;;;;;;5.97;3.50;;;20.70;99.90;;;;;;5037471;28;20261;-66
2022/09/14 03:57:59;;;;;;;4.17;3.60;;;20.80;99.90;;;;;;5055514;28;20162;-66
2022/09/14 04:00:24;;;;;;;4.93;3.47;;;20.70;99.90;;;;;;5054875;28;20533;-66
2022/09/14 04:02:50;;;;;;;3.37;3.13;;;20.70;99.90;;;;;;5055503;28;20179;-65
2022/09/14 04:05:16;;;;;;;4.27;3.03;;;20.80;99.90;;;;;;5055186;28;20159;-66
2022/09/14 04:07:42;;;;;;;3.40;3.10;;;20.70;99.90;;;;;;5055199;28;20564;-67
2022/09/14 04:10:08;;;;;;;4.87;4.40;;;20.70;99.90;;;;;;5036517;28;20175;-66
2022/09/14 04:12:35;;;;;;;4.23;3.70;;;20.80;99.90;;;;;;5055112;28;20167;-66
2022/09/14 04:15:01;;;;;;;3.87;3.40;;;20.70;99.90;;;;;;5054710;28;20433;-66
2022/09/14 04:17:27;;;;;;;4.20;3.80;;;20.80;99.90;;;;;;5054992;28;20499;-66
2022/09/14 04:19:53;;;;;;;5.60;3.43;;;20.70;99.90;;;;;;5054979;28;20166;-65
2022/09/14 04:22:18;;;;;;;7.93;4.33;;;20.70;99.90;;;;;;5054851;28;20463;-66
2022/09/14 04:24:44;;;;;;;4.97;3.50;;;20.70;99.90;;;;;;5055509;28;20279;-67
2022/09/14 04:27:10;;;;;;;5.33;3.60;;;20.70;99.90;;;;;;5054602;28;20237;-67
2022/09/14 04:29:35;;;;;;;3.63;3.30;;;20.60;99.90;;;;;;5054503;28;20178;-67
2022/09/14 04:32:01;;;;;;;5.07;4.57;;;20.70;99.90;;;;;;5054402;28;20171;-67
2022/09/14 04:34:27;;;;;;;3.60;3.27;;;20.70;99.90;;;;;;5054526;28;20699;-67
2022/09/14 04:36:53;;;;;;;4.30;3.90;;;20.60;99.90;;;;;;5054790;28;20555;-67
2022/09/14 04:39:18;;;;;;;5.10;4.60;;;20.60;99.90;;;;;;5054865;28;20582;-67
2022/09/14 04:41:44;;;;;;;5.57;4.27;;;20.40;99.90;;;;;;5049685;28;20183;-66
2022/09/14 04:44:10;;;;;;;6.70;3.87;;;20.40;99.90;;;;;;5043904;28;20418;-67
2022/09/14 04:46:38;;;;;;;7.80;4.20;;;20.30;99.90;;;;;;5051377;28;20570;-67
2022/09/14 04:49:05;;;;;;;4.93;4.40;;;20.30;99.90;;;;;;5054607;28;20177;-67
2022/09/14 04:51:32;;;;;;;5.80;3.80;;;20.10;99.90;;;;;;5054511;28;20397;-67
2022/09/14 04:53:59;;;;;;;4.37;3.80;;;20.10;99.90;;;;;;5054436;28;20409;-67
2022/09/14 04:56:27;;;;;;;4.40;4.10;;;20.20;99.90;;;;;;5053015;28;20441;-67
2022/09/14 04:58:55;;;;;;;5.30;4.30;;;20.30;99.90;;;;;;5054106;28;20423;-66
2022/09/14 05:01:23;;;;;;;5.67;4.20;;;20.40;99.90;;;;;;5054345;28;20402;-66
2022/09/14 05:03:49;;;;;;;5.63;4.57;;;20.40;99.90;;;;;;5054148;28;20405;-66
2022/09/14 05:06:17;;;;;;;4.33;3.70;;;20.50;99.90;;;;;;5054020;28;20429;-66
2022/09/14 05:08:44;;;;;;;5.13;3.63;;;20.60;99.90;;;;;;5054018;28;20921;-67
2022/09/14 05:11:12;;;;;;;4.77;4.13;;;20.50;99.90;;;;;;5053506;28;20444;-66
2022/09/14 05:13:38;;;;;;;3.50;3.10;;;20.40;99.90;;;;;;5053083;28;20414;-67
2022/09/14 05:16:17;;;;;;;4.70;4.30;;;20.50;99.90;;;;;;5054240;28;20449;-67
2022/09/14 05:18:44;;;;;;;5.20;4.57;;;20.70;99.90;;;;;;5053712;28;20163;-67
2022/09/14 05:21:11;;;;;;;4.70;4.30;;;20.80;99.90;;;;;;5053213;28;20397;-66
2022/09/14 05:23:37;;;;;;;5.30;4.80;;;20.80;99.90;;;;;;5034031;28;20406;-67
2022/09/14 05:26:04;;;;;;;6.07;4.13;;;20.90;99.90;;;;;;5045767;28;20838;-67
2022/09/14 05:28:31;;;;;;;5.17;4.70;;;21.00;99.90;;;;;;5053701;28;20641;-67
2022/09/14 05:30:56;;;;;;;5.53;4.57;;;21.00;99.90;;;;;;5053535;28;20405;-66
2022/09/14 05:33:22;;;;;;;7.03;5.30;;;21.00;99.90;;;;;;5054124;28;20714;-66
2022/09/14 05:35:49;;;;;;;6.87;4.90;;;20.70;99.90;;;;;;5053568;28;20280;-67
2022/09/14 05:38:15;;;;;;;5.07;4.53;;;20.60;99.90;;;;;;5053935;28;20782;-67
2022/09/14 05:40:40;;;;;;;7.63;5.03;;;20.60;99.90;;;;;;5053084;28;20408;-67
2022/09/14 05:43:06;;;;;;;4.60;3.90;;;20.70;99.90;;;;;;5053533;28;20214;-66
2022/09/14 05:45:33;;;;;;;5.73;5.23;;;20.80;99.90;;;;;;5052171;28;20576;-66
2022/09/14 05:48:06;;;;;;;4.87;4.37;;;20.90;99.90;;;;;;5053077;28;20217;-67
2022/09/14 05:50:32;;;;;;;5.03;4.47;;;21.00;99.90;;;;;;5053524;28;20435;-67
2022/09/14 05:52:58;;;;;;;6.40;5.90;;;21.10;99.90;;;;;;5052376;28;20832;-68
2022/09/14 05:55:24;;;;;;;6.17;5.37;;;21.10;99.90;;;;;;5053155;28;20473;-67
2022/09/14 05:57:50;;;;;;;9.40;5.93;;;21.10;99.90;;;;;;5053142;28;20245;-64
2022/09/14 06:00:16;;;;;;;6.80;6.13;;;21.20;99.90;;;;;;5051931;28;20174;-66
2022/09/14 06:02:50;;;;;;;7.77;6.00;;;21.20;99.90;;;;;;5052766;28;20743;-67
2022/09/14 06:05:16;;;;;;;7.63;5.70;;;21.10;99.90;;;;;;5051672;28;20468;-67
2022/09/14 06:07:42;;;;;;;5.60;5.10;;;21.20;99.90;;;;;;5053070;28;20425;-66
2022/09/14 06:10:08;;;;;;;5.70;5.10;;;21.20;99.90;;;;;;5053086;28;20402;-67
2022/09/14 06:12:34;;;;;;;6.27;5.77;;;21.20;99.90;;;;;;5053025;28;20815;-67
2022/09/14 06:14:59;;;;;;;5.07;4.70;;;21.30;99.90;;;;;;5052692;28;20437;-67
2022/09/14 06:17:25;;;;;;;6.73;4.50;;;21.40;99.90;;;;;;5052766;28;20182;-67
2022/09/14 06:19:51;;;;;;;6.87;5.97;;;21.50;99.90;;;;;;5051732;28;20223;-67
2022/09/14 06:22:16;;;;;;;5.80;4.63;;;21.50;99.90;;;;;;5052479;28;20163;-67
2022/09/14 06:24:42;;;;;;;6.50;5.90;;;21.60;99.90;;;;;;5051890;28;20163;-67
2022/09/14 06:27:11;;;;;;;5.97;5.47;;;21.80;99.90;;;;;;5052650;28;20213;-67
2022/09/14 06:29:36;;;;;;;5.40;4.80;;;21.80;99.90;;;;;;5053097;28;20167;-67
2022/09/14 06:32:02;;;;;;;6.27;4.53;;;21.90;99.90;;;;;;5034941;28;20420;-67
2022/09/14 06:34:29;;;;;;;6.63;6.03;;;21.90;99.90;;;;;;5052436;28;20187;-67
2022/09/14 06:36:55;;;;;;;6.17;5.63;;;21.80;99.90;;;;;;5052427;28;20182;-67
2022/09/14 06:39:20;;;;;;;7.53;5.50;;;21.90;99.90;;;;;;5052735;28;20915;-67
2022/09/14 06:41:46;;;;;;;5.30;4.60;;;22.00;99.90;;;;;;5052665;28;20645;-67
2022/09/14 06:44:11;;;;;;;5.77;5.13;;;22.10;99.90;;;;;;5053001;28;20182;-68
2022/09/14 06:46:37;;;;;;;7.57;4.57;;;22.10;99.90;;;;;;5051197;28;20202;-68
2022/09/14 06:49:07;;;;;;;5.93;5.43;;;22.10;99.90;;;;;;5052869;28;20641;-68
2022/09/14 06:51:35;;;;;;;7.40;5.57;;;22.20;99.90;;;;;;5052398;28;20241;-68
2022/09/14 06:54:02;;;;;;;4.70;4.33;;;22.20;99.90;;;;;;5052578;28;20437;-68
2022/09/14 06:56:31;;;;;;;7.63;4.07;;;22.10;99.90;;;;;;5052363;28;20425;-69
2022/09/14 06:58:57;;;;;;;4.87;4.37;;;22.10;99.90;;;;;;5052721;28;20462;-68
2022/09/14 07:01:24;;;;;;;7.47;4.20;;;22.20;99.90;;;;;;5049739;28;20416;-68
2022/09/14 07:03:51;;;;;;;5.77;4.93;;;22.40;99.90;;;;;;5041968;28;20419;-68
2022/09/14 07:06:19;;;;;;;5.63;4.00;;;22.60;99.90;;;;;;5034275;28;20530;-68
2022/09/14 07:08:46;;;;;;;4.30;3.90;;;22.80;99.90;;;;;;5052208;28;20484;-68
2022/09/14 07:11:14;;;;;;;4.50;3.40;;;22.90;99.90;;;;;;5052393;28;20404;-68
2022/09/14 07:13:40;;;;;;;4.50;3.57;;;23.00;99.90;;;;;;5052427;28;20393;-69
2022/09/14 07:16:06;;;;;;;4.73;3.37;;;23.00;99.90;;;;;;5052176;28;21035;-69
2022/09/14 07:18:33;;;;;;;4.63;3.83;;;23.10;99.90;;;;;;5052468;28;20455;-69
2022/09/14 07:21:05;;;;;;;5.50;5.00;;;23.00;99.90;;;;;;5052437;28;20400;-68
2022/09/14 07:23:32;;;;;;;4.37;4.03;;;23.10;99.90;;;;;;5052901;28;20761;-69
2022/09/14 07:26:04;;;;;;;5.70;3.87;;;23.10;99.90;;;;;;5052093;28;20449;-68
2022/09/14 07:28:30;;;;;;;5.80;3.87;;;22.90;99.90;;;;;;5050683;28;20890;-69
2022/09/14 07:30:55;;;;;;;5.50;3.80;;;22.90;99.90;;;;;;5051971;28;20902;-69
2022/09/14 07:33:21;;;;;;;3.50;3.20;;;22.90;99.90;;;;;;5052043;28;20405;-69
2022/09/14 07:35:46;;;;;;;4.17;3.80;;;23.00;99.90;;;;;;5052831;28;20202;-68
2022/09/14 07:38:12;;;;;;;4.70;3.20;;;23.00;99.90;;;;;;5056087;28;20174;-68
2022/09/14 07:40:38;;;;;;;5.27;4.23;;;23.00;99.90;;;;;;5055891;28;20171;-69
2022/09/14 07:43:03;;;;;;;4.57;4.27;;;23.10;99.90;;;;;;5055750;28;20167;-69
2022/09/14 07:45:30;;;;;;;4.37;4.00;;;23.20;99.90;;;;;;5054919;28;20178;-69
2022/09/14 07:47:55;;;;;;;4.77;4.10;;;23.10;99.90;;;;;;5055717;28;20558;-68
2022/09/14 07:50:21;;;;;;;4.63;3.80;;;23.20;99.90;;;;;;5055571;28;20409;-68
2022/09/14 07:52:50;;;;;;;6.20;3.50;;;23.30;99.90;;;;;;5055635;28;20171;-69
2022/09/14 07:55:16;;;;;;;4.80;3.43;;;23.40;99.90;;;;;;5054283;28;20187;-69
2022/09/14 07:57:41;;;;;;;3.80;3.50;;;23.50;99.90;;;;;;5055527;28;20567;-67
2022/09/14 08:00:09;;;;;;;5.50;3.40;;;23.60;99.90;;;;;;5055468;28;20418;-68
2022/09/14 08:02:35;;;;;;;5.70;4.03;;;23.50;99.90;;;;;;5055624;28;20641;-68
2022/09/14 08:05:00;;;;;;;5.07;3.60;;;23.40;99.90;;;;;;5055706;28;20416;-69
2022/09/14 08:07:26;;;;;;;5.93;4.07;;;23.60;99.90;;;;;;5055067;28;20201;-68
2022/09/14 08:09:51;;;;;;;4.00;3.47;;;23.90;99.90;;;;;;5055253;28;20196;-69
2022/09/14 08:12:17;;;;;;;3.97;3.60;;;24.00;99.90;;;;;;5054968;28;20174;-68
2022/09/14 08:14:42;;;;;;;5.53;3.77;;;24.50;99.90;;;;;;5055296;28;20191;-68
2022/09/14 08:17:09;;;;;;;3.80;3.10;;;24.60;99.90;;;;;;5055369;28;20292;-68
2022/09/14 08:19:35;;;;;;;4.40;3.27;;;24.30;99.90;;;;;;5055550;28;20170;-68
2022/09/14 08:22:02;;;;;;;4.00;3.60;;;24.00;99.90;;;;;;5055507;28;20401;-68
2022/09/14 08:24:28;;;;;;;3.43;3.13;;;24.10;99.90;;;;;;5055021;28;20931;-69
2022/09/14 08:26:54;;;;;;;4.63;2.83;;;24.10;99.90;;;;;;5076450;22;20839;-71
2022/09/14 08:29:20;;;;;;;4.30;3.47;;;24.20;99.90;;;;;;5066288;28;20495;-72
2022/09/14 08:31:47;;;;;;;3.67;3.20;;;24.10;99.90;;;;;;5075191;28;20166;-72
2022/09/14 08:34:14;;;;;;;4.20;3.60;;;24.20;99.90;;;;;;5075419;28;20217;-72
2022/09/14 08:36:41;;;;;;;4.03;3.40;;;24.30;99.90;;;;;;5082010;28;20482;-72
2022/09/14 08:39:09;;;;;;;4.50;3.13;;;24.40;99.90;;;;;;5095959;28;20951;-71
2022/09/14 08:41:44;;;;;;;4.57;3.43;;;24.40;99.90;;;;;;5094839;28;20399;-70
2022/09/14 08:44:36;;;;;;;6.23;3.20;;;24.20;99.90;;;;;;5095667;28;20375;-73
2022/09/14 08:47:17;;;;;;;3.17;2.87;;;24.50;99.90;;;;;;5081759;28;20448;-71
2022/09/14 08:49:51;;;;;;;5.47;3.30;;;24.40;99.90;;;;;;5074690;28;20376;-71
2022/09/14 08:52:42;;;;;;;5.90;3.40;;;24.20;99.90;;;;;;5074522;28;20429;-71
2022/09/14 08:55:32;;;;;;;7.80;3.70;;;24.20;99.90;;;;;;5075067;28;20428;-72
2022/09/14 08:58:07;;;;;;;4.93;3.30;;;24.20;99.90;;;;;;5074615;28;20413;-73
2022/09/14 09:00:35;;;;;;;2.93;2.73;;;24.10;99.90;;;;;;5075092;28;20728;-72
2022/09/14 09:03:22;;;;;;;5.10;3.97;;;24.10;99.90;;;;;;5074337;28;20423;-72
2022/09/14 09:05:52;;;;;;;4.13;3.07;;;24.10;99.90;;;;;;5073611;28;20498;-70
2022/09/14 09:08:50;;;;;;;4.70;3.60;;;24.20;99.90;;;;;;5074456;28;20495;-74
2022/09/14 09:11:21;;;;;;;4.00;3.40;;;24.40;99.90;;;;;;5051335;28;20420;-73
2022/09/14 09:13:49;;;;;;;4.17;3.00;;;24.30;99.90;;;;;;5074321;28;20511;-72
2022/09/14 09:16:19;;;;;;;4.73;3.20;;;24.40;99.90;;;;;;5073602;28;20480;-69
2022/09/14 09:18:49;;;;;;;5.70;3.20;;;24.40;99.90;;;;;;5074449;28;20404;-72
2022/09/14 09:21:22;;;;;;;3.27;2.97;;;24.50;99.90;;;;;;5074098;28;20453;-72
2022/09/14 09:23:48;;;;;;;5.37;3.30;;;24.70;99.90;;;;;;5074387;28;20380;-72
2022/09/14 09:26:26;;;;;;;4.70;3.43;;;24.70;99.90;;;;;;5072016;28;20444;-71
2022/09/14 09:28:55;;;;;;;3.80;2.70;;;25.00;99.90;;;;;;5074581;28;20616;-71
2022/09/14 09:31:35;;;;;;;4.00;2.47;;;25.00;99.90;;;;;;5074067;28;20774;-71
2022/09/14 09:34:01;;;;;;;5.70;3.20;;;25.20;99.90;;;;;;5074316;28;20916;-72
2022/09/14 09:36:38;;;;;;;5.50;2.57;;;25.20;99.90;;;;;;5074162;28;20972;-72
2022/09/14 09:39:04;;;;;;;4.17;2.93;;;25.20;99.90;;;;;;5072536;28;20396;-72
2022/09/14 09:41:41;;;;;;;3.97;3.67;;;25.30;99.90;;;;;;5073933;28;20538;-72
2022/09/14 09:44:09;;;;;;;4.43;3.60;;;25.50;99.90;;;;;;5073790;28;20146;-72
2022/09/14 09:46:51;;;;;;;5.30;3.23;;;25.60;99.90;;;;;;5072686;28;20436;-73
2022/09/14 09:49:30;;;;;;;2.87;2.67;;;25.60;99.90;;;;;;5073726;28;20929;-74
2022/09/14 09:52:09;;;;;;;2.80;2.60;;;25.80;99.90;;;;;;5072556;28;20495;-73
2022/09/14 09:54:35;;;;;;;4.80;2.53;;;25.80;99.90;;;;;;5073654;28;20431;-71
2022/09/14 09:57:04;;;;;;;5.77;3.00;;;25.80;99.90;;;;;;5073468;28;20434;-71
2022/09/14 09:59:35;;;;;;;4.13;2.83;;;26.20;99.90;;;;;;5072348;28;20421;-71
2022/09/14 10:02:31;;;;;;;7.17;3.10;;;26.50;99.90;;;;;;5073342;28;20400;-72
2022/09/14 10:05:08;;;;;;;3.20;2.50;;;26.70;99.90;;;;;;5074488;28;20843;-72
2022/09/14 10:07:49;;;;;;;3.03;2.83;;;26.80;99.90;;;;;;5074206;28;20416;-72
2022/09/14 10:10:18;;;;;;;4.90;2.50;;;26.80;99.90;;;;;;5074494;28;20388;-72
2022/09/14 10:13:04;;;;;;;4.40;2.40;;;26.80;99.90;;;;;;5073312;28;20483;-72
2022/09/14 10:15:32;;;;;;;4.13;2.80;;;26.90;99.90;;;;;;5073367;28;20424;-72
2022/09/14 10:18:10;;;;;;;4.07;2.77;;;26.90;99.90;;;;;;5072990;28;20957;-72
2022/09/14 10:20:57;;;;;;;7.03;2.80;;;26.90;99.90;;;;;;5073367;28;20491;-72
2022/09/14 10:23:26;;;;;;;3.50;2.70;;;26.90;99.90;;;;;;5061088;28;20926;-72
2022/09/14 10:26:13;;;;;;;3.43;2.70;;;26.80;99.90;;;;;;5073629;28;20415;-72
2022/09/14 10:28:47;;;;;;;3.07;2.80;;;26.90;99.90;;;;;;5065423;28;20946;-72
2022/09/14 10:31:18;;;;;;;4.20;3.50;;;26.80;99.90;;;;;;5073058;28;20403;-72
2022/09/14 10:33:46;;;;;;;3.90;3.07;;;26.70;99.90;;;;;;5072862;28;20491;-72
2022/09/14 10:36:24;;;;;;;6.67;2.20;;;27.00;99.90;;;;;;5073102;28;20448;-72
2022/09/14 10:38:57;;;;;;;4.47;3.23;;;27.00;99.90;;;;;;5073354;28;20380;-71
2022/09/14 10:41:51;;;;;;;3.77;2.47;;;27.50;99.90;;;;;;5073104;28;20416;-71
2022/09/14 10:44:29;;;;;;;4.07;2.73;;;27.80;99.90;;;;;;5071604;28;20545;-71
2022/09/14 10:47:26;;;;;;;5.80;2.77;;;28.10;99.90;;;;;;5071555;28;20489;-72
2022/09/14 10:50:20;;;;;;;4.60;2.70;;;28.40;99.90;;;;;;5073253;28;20396;-73
2022/09/14 10:53:14;;;;;;;5.77;3.20;;;28.10;99.90;;;;;;5073368;28;20454;-72
2022/09/14 10:55:42;;;;;;;4.53;2.80;;;28.10;99.90;;;;;;5072044;28;20783;-71
2022/09/14 10:58:29;;;;;;;2.40;2.20;;;27.80;99.90;;;;;;5072856;28;20436;-73
2022/09/14 11:01:07;;;;;;;2.60;2.37;;;27.80;99.90;;;;;;5073042;28;20476;-72
2022/09/14 11:03:54;;;;;;;4.23;2.60;;;28.20;99.90;;;;;;5072552;28;20452;-71
2022/09/14 11:06:31;;;;;;;3.77;3.07;;;28.60;99.90;;;;;;5072998;28;20420;-71
2022/09/14 11:09:21;;;;;;;3.50;3.20;;;28.80;99.90;;;;;;5072784;28;20903;-73
2022/09/14 11:12:28;;;;;;;2.60;2.03;;;28.80;99.90;;;;;;5074492;28;20388;-72
2022/09/14 11:15:38;;;;;;;2.83;2.40;;;28.90;99.90;;;;;;5077257;28;20420;-73
2022/09/14 11:18:37;;;;;;;3.77;2.50;;;29.40;99.90;;;;;;5034263;28;20537;-74
2022/09/14 11:21:30;;;;;;;3.70;2.70;;;30.70;99.90;;;;;;5082190;28;20416;-74
2022/09/14 11:24:13;;;;;;;2.80;2.10;;;31.00;99.90;;;;;;5086594;28;20411;-72
2022/09/14 11:26:43;;;;;;;6.27;2.50;;;31.90;99.50;;;;;;5084026;28;20554;-71
2022/09/14 11:29:26;;;;;;;3.33;2.03;;;32.20;97.90;;;;;;5076089;28;20503;-74
2022/09/14 11:32:00;;;;;;;4.17;2.37;;;32.70;98.40;;;;;;5076266;28;20398;-72
2022/09/14 11:34:33;;;;;;;5.30;2.50;;;33.50;97.60;;;;;;5076438;28;20435;-72
2022/09/14 11:37:11;;;;;;;3.67;2.30;;;32.70;96.00;;;;;;5076076;28;20553;-71
2022/09/14 11:39:42;;;;;;;4.60;2.10;;;31.30;98.10;;;;;;5076690;28;20388;-71
2022/09/14 11:42:30;;;;;;;3.00;2.00;;;31.60;98.60;;;;;;5076041;28;20936;-71
2022/09/14 11:45:05;;;;;;;2.67;2.43;;;31.80;97.00;;;;;;5076125;28;20513;-72
2022/09/14 11:47:40;;;;;;;3.47;2.17;;;31.70;97.00;;;;;;5074644;28;20840;-72
2022/09/14 11:50:29;;;;;;;2.70;1.83;;;31.30;97.10;;;;;;5076150;28;20741;-72
2022/09/14 11:53:12;;;;;;;5.30;2.30;;;31.10;97.10;;;;;;5076015;28;20875;-72
2022/09/14 11:55:43;;;;;;;3.20;2.10;;;31.00;97.40;;;;;;5075866;28;20428;-71
2022/09/14 11:58:28;;;;;;;4.70;1.90;;;32.50;95.70;;;;;;5075676;28;20399;-71
2022/09/14 12:01:27;;;;;;;3.33;2.10;;;33.00;95.00;;;;;;5075688;28;20460;-72
2022/09/14 12:03:58;;;;;;;4.43;2.30;;;32.20;94.70;;;;;;5074939;28;20487;-71
2022/09/14 12:06:29;;;;;;;3.00;1.90;;;30.80;95.80;;;;;;5076213;28;20442;-71
2022/09/14 12:09:19;;;;;;;3.20;1.93;;;29.80;97.40;;;;;;5075954;28;20533;-72
2022/09/14 12:11:49;;;;;;;3.37;2.40;;;29.30;98.80;;;;;;5075557;28;20507;-72
2022/09/14 12:14:27;;;;;;;3.10;2.13;;;28.80;99.80;;;;;;5075720;28;20423;-73
2022/09/14 12:17:14;;;;;;;5.37;2.20;;;28.30;99.90;;;;;;5075105;28;20485;-70
2022/09/14 12:19:42;;;;;;;3.87;2.20;;;28.40;99.90;;;;;;5075185;28;20411;-71
2022/09/14 12:22:36;;;;;;;2.70;2.37;;;28.30;99.90;;;;;;5075309;28;20394;-71
2022/09/14 12:25:17;;;;;;;8.30;2.60;;;28.10;99.90;;;;;;5075167;28;20461;-71
2022/09/14 12:27:44;;;;;;;8.50;3.43;;;28.00;99.90;;;;;;5075056;28;20463;-71
2022/09/14 12:30:35;;;;;;;4.60;2.53;;;27.70;99.90;;;;;;5075091;28;20831;-72
2022/09/14 12:33:02;;;;;;;5.40;2.60;;;27.60;99.90;;;;;;5074579;28;20400;-70
2022/09/14 12:35:36;;;;;;;4.13;2.50;;;27.40;99.90;;;;;;5074739;28;20440;-71
2022/09/14 12:38:30;;;;;;;4.83;2.60;;;27.10;99.90;;;;;;5074624;28;20422;-72
2022/09/14 12:40:57;;;;;;;3.67;2.43;;;27.20;99.90;;;;;;5075044;28;20392;-72
2022/09/14 12:43:32;;;;;;;6.27;2.60;;;27.00;99.90;;;;;;5075136;28;20400;-72
2022/09/14 12:46:18;;;;;;;3.73;2.73;;;26.90;99.90;;;;;;5075279;28;20457;-73
2022/09/14 12:48:47;;;;;;;3.47;2.70;;;26.30;99.90;;;;;;5073910;28;20570;-72
2022/09/14 12:51:12;;;;;;;5.23;2.83;;;25.70;99.90;;;;;;5075388;28;20769;-71
2022/09/14 12:53:39;;;;;;;5.53;2.73;;;25.40;99.90;;;;;;5075140;28;20405;-71
2022/09/14 12:56:15;;;;;;;3.60;2.90;;;25.30;99.90;;;;;;5074791;28;20574;-71
2022/09/14 12:58:54;;;;;;;2.50;2.07;;;25.00;99.90;;;;;;5075410;28;20396;-71
2022/09/14 13:01:35;;;;;;;5.93;2.80;;;24.60;99.90;;;;;;5075242;28;20404;-71
2022/09/14 13:04:01;;;;;;;5.47;2.60;;;24.20;99.90;;;;;;5074677;28;20437;-72
2022/09/14 13:06:38;;;;;;;3.60;2.60;;;24.10;99.90;;;;;;5074702;28;20420;-71
2022/09/14 13:09:03;;;;;;;7.00;3.07;;;23.60;99.90;;;;;;5074401;28;20391;-72
2022/09/14 13:11:34;;;;;;;3.17;2.87;;;23.50;99.90;;;;;;5074517;28;20396;-71